Strahan, Australia
Current Conditions -  °F | °C
As of 2:00 PM on Sunday 23 Nov 2014 (Local Time) from YMLT Reporting Station
Clear Clear  
Wind Chill: 72°   Ceiling: Unl
Heat Index: 72°   Visibility: 6mi
Dew Point: 46°   Wind: 17mph
Humidity: 41%   Direction: 330°NNW
Pressure: 29.8"   Gusts: NA
Location:  42.16°S, 145.33°E
Report Text: YMLT 230300Z AUTO 33015KT 9999 // NCD 22/08 Q1009
Loading
Personal Weather Stations






























Interactive Weather Map New forecast layout! Learn more

10-Day Weather Forecast

Advertisements
Track Severe Weather on mobile